createdAt,value
2023-04-24T00:02:25.175Z,37.98
2023-04-24T00:04:52.338Z,37.83
2023-04-24T00:07:23.767Z,37.87
2023-04-24T00:09:52.751Z,38.07
2023-04-24T00:12:19.468Z,38.06
2023-04-24T00:14:46.087Z,38.07
2023-04-24T00:17:14.928Z,38.16
2023-04-24T00:19:41.794Z,38.03
2023-04-24T00:22:11.964Z,38.24
2023-04-24T00:24:38.666Z,38.00
2023-04-24T00:27:07.647Z,38.07
2023-04-24T00:29:34.327Z,38.16
2023-04-24T00:32:01.208Z,38.09
2023-04-24T00:34:29.996Z,38.18
2023-04-24T00:36:56.615Z,38.11
2023-04-24T00:39:23.973Z,38.23
2023-04-24T00:41:51.981Z,38.20
2023-04-24T00:44:20.981Z,38.20
2023-04-24T00:46:48.288Z,38.12
2023-04-24T00:49:17.321Z,38.18
2023-04-24T00:51:46.671Z,38.30
2023-04-24T00:54:14.112Z,38.52
2023-04-24T00:56:41.396Z,38.55
2023-04-24T00:59:10.560Z,38.50
2023-04-24T01:01:37.220Z,38.55
2023-04-24T01:04:06.248Z,38.66
2023-04-24T01:06:40.703Z,38.57
2023-04-24T01:09:09.354Z,38.60
2023-04-24T01:11:37.422Z,38.82
2023-04-24T01:14:04.124Z,38.53
2023-04-24T01:16:30.927Z,38.80
2023-04-24T01:19:00.003Z,38.73
2023-04-24T01:21:28.867Z,38.71
2023-04-24T01:23:57.710Z,38.86
2023-04-24T01:26:26.613Z,38.77
2023-04-24T01:28:55.590Z,38.88
2023-04-24T01:31:24.451Z,38.91
2023-04-24T01:33:51.997Z,38.93
2023-04-24T01:36:24.679Z,38.93
2023-04-24T01:38:52.626Z,38.98
2023-04-24T01:41:19.370Z,38.94
2023-04-24T01:43:48.281Z,38.83
2023-04-24T01:46:17.551Z,38.87
2023-04-24T01:48:46.468Z,39.08
2023-04-24T01:51:13.112Z,38.91
2023-04-24T01:53:39.798Z,39.12
2023-04-24T01:56:06.535Z,39.08
2023-04-24T01:58:33.329Z,39.06
2023-04-24T02:01:00.740Z,38.98
2023-04-24T02:03:30.285Z,38.91
2023-04-24T02:05:59.182Z,38.95
2023-04-24T02:08:27.967Z,39.07
2023-04-24T02:10:55.080Z,39.05
2023-04-24T02:13:21.781Z,39.22
2023-04-24T02:15:50.607Z,39.03
2023-04-24T02:18:18.017Z,38.92
2023-04-24T02:20:44.685Z,38.90
2023-04-24T02:23:11.258Z,39.02
2023-04-24T02:25:40.431Z,38.86
2023-04-24T02:28:09.326Z,38.78
2023-04-24T02:30:35.988Z,38.79
2023-04-24T02:33:07.787Z,38.88
2023-04-24T02:35:34.476Z,38.99
2023-04-24T02:38:01.085Z,38.89
2023-04-24T02:40:27.717Z,38.82
2023-04-24T02:42:56.531Z,38.93
2023-04-24T02:45:23.204Z,38.82
2023-04-24T02:47:54.661Z,38.96
2023-04-24T02:50:21.581Z,39.06
2023-04-24T02:52:48.186Z,38.88
2023-04-24T02:55:19.655Z,39.07
2023-04-24T02:57:49.181Z,38.92
2023-04-24T03:00:18.547Z,38.87
2023-04-24T03:02:45.286Z,38.96
2023-04-24T03:05:14.574Z,39.01
2023-04-24T03:07:41.378Z,39.10
2023-04-24T03:10:11.500Z,38.97
2023-04-24T03:12:38.164Z,39.02
2023-04-24T03:15:07.491Z,39.18
2023-04-24T03:17:36.547Z,39.09
2023-04-24T03:20:03.835Z,39.21
2023-04-24T03:22:33.630Z,39.35
2023-04-24T03:25:00.330Z,39.30
2023-04-24T03:27:29.265Z,39.37
2023-04-24T03:29:58.837Z,39.47
2023-04-24T03:32:25.522Z,39.45
2023-04-24T03:34:54.472Z,39.36
2023-04-24T03:37:24.245Z,39.32
2023-04-24T03:39:53.073Z,39.39
2023-04-24T03:42:19.774Z,39.66
2023-04-24T03:44:46.599Z,39.39
2023-04-24T03:47:16.128Z,39.45
2023-04-24T03:49:43.240Z,39.35
2023-04-24T03:52:12.877Z,39.45
2023-04-24T03:54:39.623Z,39.59
2023-04-24T03:57:08.454Z,39.53
2023-04-24T03:59:39.938Z,39.54
2023-04-24T04:02:08.972Z,39.51
2023-04-24T04:04:35.806Z,39.42
2023-04-24T04:07:04.800Z,39.29
2023-04-24T04:09:33.634Z,39.53
2023-04-24T04:12:01.472Z,39.61
2023-04-24T04:14:28.592Z,39.71
2023-04-24T04:16:55.370Z,39.64
2023-04-24T04:19:26.814Z,39.44
2023-04-24T04:21:54.574Z,39.67
2023-04-24T04:24:25.133Z,39.44
2023-04-24T04:26:53.302Z,39.35
2023-04-24T04:29:22.155Z,39.55
2023-04-24T04:31:48.936Z,39.61
2023-04-24T04:34:18.034Z,39.52
2023-04-24T04:36:45.317Z,39.63
2023-04-24T04:39:12.003Z,39.63
2023-04-24T04:41:41.597Z,39.49
2023-04-24T04:44:09.907Z,39.55
2023-04-24T04:46:41.283Z,39.52
2023-04-24T04:49:10.145Z,39.37
2023-04-24T04:51:43.033Z,39.35
2023-04-24T04:54:09.917Z,39.40
2023-04-24T04:56:39.325Z,39.27
2023-04-24T04:59:08.424Z,39.18
2023-04-24T05:01:39.758Z,39.35
2023-04-24T05:04:08.763Z,39.18
2023-04-24T05:06:35.507Z,39.25
2023-04-24T05:09:02.206Z,38.96
2023-04-24T05:11:31.122Z,39.17
2023-04-24T05:13:57.828Z,39.07
2023-04-24T05:16:24.602Z,39.03
2023-04-24T05:18:51.230Z,38.98
2023-04-24T05:21:20.324Z,38.83
2023-04-24T05:23:46.980Z,38.92
2023-04-24T05:26:14.584Z,38.77
2023-04-24T05:28:41.837Z,38.90
2023-04-24T05:31:10.850Z,39.00
2023-04-24T05:33:37.524Z,38.97
2023-04-24T05:36:07.277Z,39.10
2023-04-24T05:38:34.330Z,39.04
2023-04-24T05:41:03.358Z,36.31
2023-04-24T05:43:34.734Z,34.79
2023-04-24T05:46:03.877Z,35.10
2023-04-24T05:48:33.219Z,35.03
2023-04-24T05:50:59.967Z,35.17
2023-04-24T05:53:28.787Z,35.09
2023-04-24T05:55:55.529Z,35.50
2023-04-24T05:58:25.423Z,35.63
2023-04-24T06:00:54.793Z,35.16
2023-04-24T06:03:24.073Z,36.24
2023-04-24T06:05:58.649Z,36.19
2023-04-24T06:08:27.528Z,35.77
2023-04-24T06:10:54.257Z,35.99
2023-04-24T06:13:21.179Z,35.99
2023-04-24T06:15:49.806Z,36.25
2023-04-24T06:18:16.784Z,36.67
2023-04-24T06:20:50.747Z,36.75
2023-04-24T06:23:17.529Z,37.31
2023-04-24T06:25:46.576Z,37.07
2023-04-24T06:28:18.496Z,36.79
2023-04-24T06:30:45.144Z,37.34
2023-04-24T06:35:45.820Z,37.09
2023-04-24T06:38:14.672Z,37.31
2023-04-24T06:40:46.434Z,37.49
2023-04-24T06:43:18.652Z,37.79
2023-04-24T06:45:47.584Z,37.61
2023-04-24T06:48:16.890Z,37.75
2023-04-24T06:50:48.180Z,38.04
2023-04-24T06:53:15.427Z,37.84
2023-04-24T06:55:45.771Z,38.12
2023-04-24T06:58:17.156Z,38.45
2023-04-24T07:00:46.064Z,37.81
2023-04-24T07:03:12.936Z,37.86
2023-04-24T07:05:40.078Z,37.91
2023-04-24T07:08:07.856Z,37.97
2023-04-24T07:10:35.167Z,37.81
2023-04-24T07:13:03.971Z,37.45
2023-04-24T07:15:30.886Z,37.82
2023-04-24T07:17:59.734Z,37.67
2023-04-24T07:20:28.670Z,37.51
2023-04-24T07:22:55.369Z,37.78
2023-04-24T07:25:22.468Z,38.12
2023-04-24T07:27:50.101Z,37.97
2023-04-24T07:30:22.145Z,37.95
2023-04-24T07:32:50.985Z,37.50
2023-04-24T07:35:17.662Z,37.69
2023-04-24T07:37:46.941Z,37.64
2023-04-24T07:40:19.743Z,37.51
2023-04-24T07:42:52.564Z,37.59
2023-04-24T07:45:21.498Z,37.56
2023-04-24T07:47:48.150Z,37.03
2023-04-24T07:50:17.644Z,36.95
2023-04-24T07:52:49.311Z,36.76
2023-04-24T07:55:16.087Z,37.07
2023-04-24T07:57:42.791Z,36.64
2023-04-24T08:00:12.240Z,36.61
2023-04-24T08:02:39.233Z,36.72
2023-04-24T08:05:06.758Z,37.16
2023-04-24T08:07:36.367Z,36.22
2023-04-24T08:10:06.348Z,36.41
2023-04-24T08:12:38.216Z,35.91
2023-04-24T08:15:08.489Z,36.21
2023-04-24T08:17:36.392Z,36.72
2023-04-24T08:20:06.276Z,36.59
2023-04-24T08:22:35.218Z,36.35
2023-04-24T08:25:04.033Z,36.21
2023-04-24T08:27:33.330Z,36.33
2023-04-24T08:30:00.823Z,36.65
2023-04-24T08:32:30.164Z,37.31
2023-04-24T08:34:59.679Z,36.38
2023-04-24T08:37:30.098Z,36.15
2023-04-24T08:39:59.483Z,36.23
2023-04-24T08:42:26.166Z,36.47
2023-04-24T08:44:55.023Z,36.37
2023-04-24T08:47:25.793Z,36.40
2023-04-24T08:49:54.707Z,36.55
2023-04-24T08:52:23.696Z,36.70
2023-04-24T08:54:50.502Z,36.80
2023-04-24T08:57:22.257Z,36.63
2023-04-24T08:59:48.941Z,36.30
2023-04-24T09:02:17.789Z,36.72
2023-04-24T09:04:44.693Z,36.81
2023-04-24T09:07:14.524Z,36.02
2023-04-24T09:09:41.402Z,36.02
2023-04-24T09:12:10.407Z,35.78
2023-04-24T09:14:46.233Z,35.67
2023-04-24T09:17:13.562Z,35.84
2023-04-24T09:19:41.514Z,35.38
2023-04-24T09:22:08.878Z,35.77
2023-04-24T09:24:36.038Z,35.75
2023-04-24T09:27:04.978Z,36.56
2023-04-24T09:29:33.841Z,36.07
2023-04-24T09:32:02.738Z,36.11
2023-04-24T09:34:29.529Z,36.32
2023-04-24T09:36:58.544Z,36.32
2023-04-24T09:39:27.347Z,36.35
2023-04-24T09:41:57.739Z,35.52
2023-04-24T09:44:25.741Z,35.08
2023-04-24T09:47:03.740Z,36.41
2023-04-24T09:49:31.396Z,36.28
2023-04-24T09:52:10.182Z,35.87
2023-04-24T09:54:40.499Z,36.03
2023-04-24T09:57:08.781Z,36.48
2023-04-24T09:59:39.623Z,35.31
2023-04-24T10:02:20.791Z,36.16
2023-04-24T10:04:57.699Z,35.92
2023-04-24T10:07:27.225Z,34.04
2023-04-24T10:09:56.687Z,34.09
2023-04-24T10:12:26.004Z,34.06
2023-04-24T10:14:52.684Z,32.77
2023-04-24T10:17:21.526Z,33.71
2023-04-24T10:19:50.856Z,33.54
2023-04-24T10:22:17.792Z,33.39
2023-04-24T10:24:45.166Z,33.15
2023-04-24T10:27:11.909Z,35.69
2023-04-24T10:29:43.857Z,35.52
2023-04-24T10:32:11.078Z,35.73
2023-04-24T10:34:40.102Z,35.64
2023-04-24T10:37:06.802Z,35.20
2023-04-24T10:39:34.621Z,35.02
2023-04-24T10:42:01.888Z,34.91
2023-04-24T10:44:36.903Z,35.05
2023-04-24T10:47:03.781Z,34.87
2023-04-24T10:49:31.488Z,34.86
2023-04-24T10:52:06.836Z,34.70
2023-04-24T10:54:45.275Z,35.03
2023-04-24T10:57:24.079Z,35.86
2023-04-24T11:00:10.718Z,35.03
2023-04-24T11:02:38.474Z,33.86
2023-04-24T11:05:05.563Z,35.23
2023-04-24T11:08:11.406Z,31.49
2023-04-24T11:10:58.598Z,29.65
2023-04-24T11:13:29.136Z,32.11
2023-04-24T11:16:15.042Z,31.49
2023-04-24T11:18:46.346Z,31.55
2023-04-24T11:21:16.048Z,32.62
2023-04-24T11:23:43.038Z,31.32
2023-04-24T11:26:33.531Z,33.89
2023-04-24T11:29:11.936Z,33.68
2023-04-24T11:31:49.622Z,33.30
2023-04-24T11:34:17.426Z,33.30
2023-04-24T11:36:45.298Z,33.15
2023-04-24T11:39:14.263Z,33.62
2023-04-24T11:41:40.925Z,33.54
2023-04-24T11:44:08.974Z,35.06
2023-04-24T11:46:37.838Z,34.71
2023-04-24T11:49:07.477Z,33.37
2023-04-24T11:51:40.688Z,33.43
2023-04-24T11:54:14.907Z,35.27
2023-04-24T11:56:47.704Z,36.29
2023-04-24T11:59:16.578Z,36.14
2023-04-24T12:01:47.006Z,36.01
2023-04-24T12:04:17.381Z,36.30
2023-04-24T12:07:06.859Z,35.08
2023-04-24T12:09:43.900Z,36.13
2023-04-24T12:12:13.111Z,36.15
2023-04-24T12:15:01.625Z,36.67
2023-04-24T12:17:30.924Z,36.92
2023-04-24T12:20:04.488Z,36.81
2023-04-24T12:22:58.018Z,36.37
2023-04-24T12:25:34.168Z,36.29
2023-04-24T12:28:06.821Z,35.18
2023-04-24T12:30:35.310Z,34.13
2023-04-24T12:33:04.791Z,34.76
2023-04-24T12:35:34.706Z,35.11
2023-04-24T12:38:14.188Z,35.08
2023-04-24T12:40:44.020Z,34.97
2023-04-24T12:43:18.952Z,35.09
2023-04-24T12:45:48.385Z,34.95
2023-04-24T12:48:18.167Z,34.53
2023-04-24T12:50:47.825Z,34.49
2023-04-24T12:53:19.232Z,34.44
2023-04-24T12:55:53.553Z,34.28
2023-04-24T12:58:23.058Z,34.48
